Utopia, Texas
Current Conditions -  °F | °C
As of 4:51 PM on Thursday 20 Nov 2014 (Local Time) from KHDO Reporting Station
Overcast Overcast  
Wind Chill: 60°   Ceiling: 1800
Heat Index: 60°   Visibility: 10mi
Dew Point: 59°   Wind: 7mph
Humidity: 96%   Direction: 180°S
Pressure: 30.04"   Gusts: NA
Location:  29.62°N, 99.53°W
Report Text: KHDO 202251Z AUTO 18006KT 10SM FEW011 BKN018 OVC029 16/15 A3004 RMK AO2 SLP165 T01560150 $
Loading
Personal Weather Stations






























Interactive Weather Map New forecast layout! Learn more

10-Day Weather Forecast

Advertisements
Track Severe Weather on mobile